createdAt,value
2019-05-25T00:00:21.744Z,18.03
2019-05-25T00:02:51.203Z,16.33
2019-05-25T00:05:20.681Z,18.07
2019-05-25T00:07:50.088Z,17.43
2019-05-25T00:10:19.660Z,16.47
2019-05-25T00:12:49.112Z,17.13
2019-05-25T00:15:18.448Z,15.70
2019-05-25T00:17:47.848Z,17.50
2019-05-25T00:20:17.326Z,17.13
2019-05-25T00:22:46.665Z,17.43
2019-05-25T00:25:16.106Z,16.50
2019-05-25T00:27:45.460Z,17.10
2019-05-25T00:30:15.324Z,17.73
2019-05-25T00:32:44.669Z,18.50
2019-05-25T00:35:14.079Z,19.17
2019-05-25T00:37:43.593Z,20.43
2019-05-25T00:40:13.549Z,21.00
2019-05-25T00:42:42.951Z,22.93
2019-05-25T00:45:12.510Z,22.47
2019-05-25T00:47:41.970Z,23.10
2019-05-25T00:50:11.680Z,23.73
2019-05-25T00:52:41.022Z,21.83
2019-05-25T00:55:10.764Z,21.67
2019-05-25T00:57:40.229Z,21.17
2019-05-25T01:00:09.863Z,21.60
2019-05-25T01:02:41.336Z,21.47
2019-05-25T01:05:10.891Z,20.37
2019-05-25T01:07:40.358Z,20.60
2019-05-25T01:10:10.083Z,18.83
2019-05-25T01:12:39.745Z,18.77
2019-05-25T01:15:09.566Z,18.83
2019-05-25T01:17:39.034Z,20.43
2019-05-25T01:20:09.339Z,20.30
2019-05-25T01:22:38.782Z,21.40
2019-05-25T01:25:09.267Z,22.30
2019-05-25T01:27:38.780Z,24.50
2019-05-25T01:30:09.263Z,26.03
2019-05-25T01:32:38.678Z,25.87
2019-05-25T01:35:08.319Z,23.53
2019-05-25T01:37:38.066Z,25.70
2019-05-25T01:40:09.821Z,25.07
2019-05-25T01:42:39.300Z,24.83
2019-05-25T01:45:09.656Z,23.00
2019-05-25T01:47:39.093Z,24.47
2019-05-25T01:50:08.636Z,24.10
2019-05-25T01:52:38.063Z,22.43
2019-05-25T01:55:07.993Z,20.83
2019-05-25T01:57:37.373Z,21.37
2019-05-25T02:00:07.667Z,20.93
2019-05-25T02:02:37.134Z,21.03
2019-05-25T02:05:07.104Z,19.73
2019-05-25T02:07:36.566Z,18.87
2019-05-25T02:10:07.201Z,19.07
2019-05-25T02:12:36.655Z,17.33
2019-05-25T02:15:07.002Z,17.07
2019-05-25T02:17:36.557Z,16.80
2019-05-25T02:20:07.170Z,14.33
2019-05-25T02:22:36.548Z,16.00
2019-05-25T02:25:17.118Z,15.90
2019-05-25T02:27:37.376Z,15.80
2019-05-25T02:30:07.081Z,15.40
2019-05-25T02:32:36.535Z,17.23
2019-05-25T02:35:06.628Z,16.87
2019-05-25T02:37:35.958Z,17.47
2019-05-25T02:40:06.277Z,15.57
2019-05-25T02:42:35.758Z,15.83
2019-05-25T02:45:05.892Z,16.47
2019-05-25T02:47:35.322Z,14.70
2019-05-25T02:50:05.174Z,15.67
2019-05-25T02:52:34.664Z,14.80
2019-05-25T02:55:04.508Z,14.50
2019-05-25T02:57:33.900Z,14.33
2019-05-25T03:00:03.496Z,15.53
2019-05-25T03:02:32.840Z,15.80
2019-05-25T03:05:02.472Z,14.80
2019-05-25T03:07:32.602Z,15.23
2019-05-25T03:10:03.666Z,14.57
2019-05-25T03:12:33.516Z,14.87
2019-05-25T03:15:03.260Z,14.00
2019-05-25T03:17:32.938Z,14.43
2019-05-25T03:20:02.432Z,15.50
2019-05-25T03:22:31.753Z,14.90
2019-05-25T03:25:01.209Z,14.63
2019-05-25T03:27:30.707Z,15.10
2019-05-25T03:30:00.217Z,15.33
2019-05-25T03:32:29.568Z,15.03
2019-05-25T03:34:59.296Z,14.17
2019-05-25T03:37:28.754Z,15.17
2019-05-25T03:39:58.159Z,14.90
2019-05-25T03:42:27.520Z,14.13
2019-05-25T03:44:56.920Z,13.77
2019-05-25T03:47:26.422Z,14.77
2019-05-25T03:49:55.928Z,14.63
2019-05-25T03:52:25.670Z,15.93
2019-05-25T03:54:55.095Z,14.40
2019-05-25T03:57:24.633Z,15.43
2019-05-25T03:59:54.149Z,14.20
2019-05-25T04:02:23.553Z,14.33
2019-05-25T04:04:53.052Z,14.93
2019-05-25T04:07:22.413Z,15.20
2019-05-25T04:09:51.977Z,14.23
2019-05-25T04:12:21.316Z,13.60
2019-05-25T04:14:50.784Z,14.20
2019-05-25T04:17:20.216Z,13.77
2019-05-25T04:19:49.601Z,12.90
2019-05-25T04:22:19.045Z,13.90
2019-05-25T04:24:48.478Z,13.87
2019-05-25T04:27:17.931Z,12.90
2019-05-25T04:29:47.281Z,13.50
2019-05-25T04:32:16.638Z,13.00
2019-05-25T04:34:46.071Z,12.67
2019-05-25T04:37:15.440Z,12.97
2019-05-25T04:39:44.898Z,11.73
2019-05-25T04:42:14.343Z,13.13
2019-05-25T04:44:43.864Z,13.60
2019-05-25T04:47:26.052Z,12.87
2019-05-25T04:49:44.447Z,14.00
2019-05-25T04:52:13.785Z,13.70
2019-05-25T04:54:43.092Z,14.53
2019-05-25T04:57:12.552Z,13.67
2019-05-25T04:59:42.148Z,13.70
2019-05-25T05:02:11.633Z,14.00
2019-05-25T05:04:41.002Z,13.80
2019-05-25T05:07:10.382Z,12.93
2019-05-25T05:09:39.813Z,12.70
2019-05-25T05:12:09.272Z,13.33
2019-05-25T05:14:38.770Z,12.87
2019-05-25T05:17:08.122Z,13.07
2019-05-25T05:19:37.571Z,13.27
2019-05-25T05:22:06.973Z,12.27
2019-05-25T05:24:36.347Z,13.00
2019-05-25T05:27:05.833Z,12.40
2019-05-25T05:29:35.288Z,12.17
2019-05-25T05:32:04.735Z,11.13
2019-05-25T05:34:34.184Z,11.60
2019-05-25T05:37:04.031Z,10.80
2019-05-25T05:39:34.344Z,11.20
2019-05-25T05:42:04.553Z,10.40
2019-05-25T05:44:34.518Z,10.63
2019-05-25T05:47:04.549Z,9.63
2019-05-25T05:49:33.970Z,10.20
2019-05-25T05:52:03.818Z,7.90
2019-05-25T05:54:34.038Z,8.57
2019-05-25T05:57:12.406Z,8.80
2019-05-25T05:59:34.495Z,8.07
2019-05-25T06:02:04.127Z,8.80
2019-05-25T06:04:33.515Z,8.00
2019-05-25T06:07:02.999Z,7.60
2019-05-25T06:09:32.411Z,7.10
2019-05-25T06:12:01.781Z,7.30
2019-05-25T06:14:31.138Z,6.70
2019-05-25T06:17:00.557Z,6.80
2019-05-25T06:19:29.944Z,5.60
2019-05-25T06:21:59.370Z,6.13
2019-05-25T06:24:28.819Z,6.50
2019-05-25T06:26:58.448Z,5.30
2019-05-25T06:29:27.831Z,5.50
2019-05-25T06:31:57.183Z,5.33
2019-05-25T06:34:26.537Z,5.33
2019-05-25T06:36:56.207Z,5.37
2019-05-25T06:39:25.612Z,5.23
2019-05-25T06:41:55.041Z,5.43
2019-05-25T06:44:24.433Z,4.90
2019-05-25T06:46:53.852Z,4.50
2019-05-25T06:49:23.283Z,4.83
2019-05-25T06:51:52.716Z,4.37
2019-05-25T06:54:22.147Z,5.27
2019-05-25T06:56:51.624Z,5.03
2019-05-25T06:59:20.948Z,4.77
2019-05-25T07:01:50.372Z,5.00
2019-05-25T07:04:19.768Z,5.33
2019-05-25T07:06:49.108Z,4.40
2019-05-25T07:09:18.532Z,4.60
2019-05-25T07:11:48.098Z,4.30
2019-05-25T07:14:17.453Z,4.50
2019-05-25T07:16:46.777Z,4.43
2019-05-25T07:19:16.240Z,4.28
2019-05-25T07:21:45.685Z,4.12
2019-05-25T07:24:15.160Z,4.37
2019-05-25T07:26:44.588Z,3.83
2019-05-25T07:29:14.030Z,3.90
2019-05-25T07:31:43.449Z,4.17
2019-05-25T07:34:12.904Z,3.40
2019-05-25T07:36:42.349Z,4.03
2019-05-25T07:39:11.708Z,4.20
2019-05-25T07:41:41.165Z,3.40
2019-05-25T07:44:10.827Z,3.77
2019-05-25T07:46:40.261Z,3.45
2019-05-25T07:49:09.609Z,3.60
2019-05-25T07:51:39.077Z,3.77
2019-05-25T07:54:08.462Z,3.50
2019-05-25T07:56:37.972Z,3.40
2019-05-25T07:59:07.315Z,3.30
2019-05-25T08:01:36.785Z,3.87
2019-05-25T08:04:06.174Z,3.58
2019-05-25T08:06:35.693Z,2.98
2019-05-25T08:09:07.104Z,3.35
2019-05-25T08:11:36.565Z,3.35
2019-05-25T08:14:05.936Z,3.08
2019-05-25T08:16:35.283Z,3.60
2019-05-25T08:19:04.756Z,3.60
2019-05-25T08:21:34.154Z,3.50
2019-05-25T08:24:03.489Z,3.52
2019-05-25T08:26:32.833Z,3.60
2019-05-25T08:29:02.340Z,2.70
2019-05-25T08:31:31.693Z,3.17
2019-05-25T08:34:01.069Z,3.35
2019-05-25T08:36:30.509Z,3.10
2019-05-25T08:38:59.968Z,3.05
2019-05-25T08:41:29.408Z,3.10
2019-05-25T08:43:58.868Z,3.05
2019-05-25T08:46:28.357Z,3.33
2019-05-25T08:48:58.141Z,3.42
2019-05-25T08:51:27.516Z,2.72
2019-05-25T08:53:56.782Z,2.75
2019-05-25T08:56:26.194Z,2.70
2019-05-25T08:58:55.804Z,2.83
2019-05-25T09:01:25.302Z,3.08
2019-05-25T09:03:54.778Z,3.00
2019-05-25T09:06:24.366Z,2.67
2019-05-25T09:08:53.741Z,3.12
2019-05-25T09:11:23.103Z,3.55
2019-05-25T09:13:52.477Z,3.33
2019-05-25T09:16:21.891Z,2.85
2019-05-25T09:18:51.249Z,3.27
2019-05-25T09:21:20.708Z,3.12
2019-05-25T09:23:50.265Z,3.20
2019-05-25T09:26:19.730Z,4.03
2019-05-25T09:29:03.585Z,3.58
2019-05-25T09:31:20.336Z,3.45
2019-05-25T09:33:49.760Z,3.33
2019-05-25T09:36:19.209Z,3.70
2019-05-25T09:38:48.636Z,3.80
2019-05-25T09:41:18.042Z,3.70
2019-05-25T09:43:47.481Z,3.67
2019-05-25T09:46:16.869Z,3.80
2019-05-25T09:48:46.436Z,3.90
2019-05-25T09:51:16.070Z,3.60
2019-05-25T09:53:45.710Z,3.27
2019-05-25T09:56:16.167Z,3.47
2019-05-25T09:58:45.640Z,3.37
2019-05-25T10:01:15.034Z,3.12
2019-05-25T10:03:44.469Z,3.52
2019-05-25T10:06:13.899Z,3.87
2019-05-25T10:08:43.268Z,3.80
2019-05-25T10:11:12.687Z,3.90
2019-05-25T10:13:42.051Z,3.65
2019-05-25T10:16:11.491Z,4.28
2019-05-25T10:18:40.944Z,3.80
2019-05-25T10:21:10.286Z,3.52
2019-05-25T10:23:39.741Z,3.60
2019-05-25T10:26:09.199Z,3.72
2019-05-25T10:28:38.554Z,3.90
2019-05-25T10:31:08.051Z,4.45
2019-05-25T10:33:37.584Z,3.92
2019-05-25T10:36:07.157Z,4.50
2019-05-25T10:38:36.627Z,4.70
2019-05-25T10:41:06.082Z,4.30
2019-05-25T10:43:35.527Z,4.45
2019-05-25T10:46:04.964Z,4.40
2019-05-25T10:48:34.358Z,4.30
2019-05-25T10:51:03.778Z,4.65
2019-05-25T10:53:33.128Z,4.15
2019-05-25T10:56:02.608Z,5.10
2019-05-25T10:58:31.971Z,4.17
2019-05-25T11:01:01.440Z,4.08
2019-05-25T11:03:30.858Z,3.50
2019-05-25T11:06:00.261Z,3.75
2019-05-25T11:08:29.756Z,3.22
2019-05-25T11:10:59.181Z,3.15
2019-05-25T11:13:28.607Z,3.50
2019-05-25T11:15:57.952Z,3.52
2019-05-25T11:18:27.324Z,3.30
2019-05-25T11:20:56.771Z,3.15
2019-05-25T11:23:26.200Z,3.35
2019-05-25T11:25:55.745Z,3.10
2019-05-25T11:28:25.237Z,3.20
2019-05-25T11:30:54.793Z,3.15
2019-05-25T11:33:24.386Z,3.72
2019-05-25T11:35:53.780Z,3.67
2019-05-25T11:38:23.244Z,3.10
2019-05-25T11:40:52.571Z,3.10
2019-05-25T11:43:21.930Z,3.52
2019-05-25T11:45:51.328Z,3.37
2019-05-25T11:48:20.871Z,3.30
2019-05-25T11:50:50.332Z,3.30
2019-05-25T11:53:19.692Z,3.30
2019-05-25T11:55:49.155Z,4.30
2019-05-25T11:58:18.521Z,4.00
2019-05-25T12:00:47.936Z,4.37
2019-05-25T12:03:17.333Z,5.05
2019-05-25T12:05:46.896Z,4.33
2019-05-25T12:08:16.265Z,4.37
2019-05-25T12:10:45.703Z,4.12
2019-05-25T12:13:15.071Z,5.20
2019-05-25T12:15:44.424Z,5.20
2019-05-25T12:18:13.906Z,7.15
2019-05-25T12:20:43.329Z,4.40
2019-05-25T12:23:12.967Z,4.47
2019-05-25T12:25:42.685Z,4.80
2019-05-25T12:28:12.161Z,3.87
2019-05-25T12:30:41.616Z,4.65
2019-05-25T12:33:11.075Z,3.35
2019-05-25T12:35:40.503Z,5.25
2019-05-25T12:38:09.973Z,4.90
2019-05-25T12:40:52.723Z,5.10
2019-05-25T12:43:10.492Z,5.70
2019-05-25T12:45:42.112Z,5.60
2019-05-25T12:48:10.901Z,4.70
2019-05-25T12:50:40.408Z,5.87
2019-05-25T12:53:09.881Z,6.03
2019-05-25T12:55:58.467Z,5.47
2019-05-25T12:58:27.991Z,5.92
2019-05-25T13:00:59.392Z,6.15
2019-05-25T13:03:28.918Z,5.97
2019-05-25T13:05:58.407Z,5.90
2019-05-25T13:08:27.964Z,7.00
2019-05-25T13:10:57.371Z,6.55
2019-05-25T13:13:26.825Z,5.72
2019-05-25T13:15:56.415Z,7.00
2019-05-25T13:18:25.964Z,6.53
2019-05-25T13:20:55.392Z,7.05
2019-05-25T13:23:24.849Z,7.30
2019-05-25T13:25:54.184Z,5.95
2019-05-25T13:28:23.506Z,9.28
2019-05-25T13:30:52.971Z,8.05
2019-05-25T13:33:22.288Z,8.28
2019-05-25T13:35:51.628Z,8.03
2019-05-25T13:38:21.104Z,9.15
2019-05-25T13:40:50.561Z,7.92
2019-05-25T13:43:19.994Z,8.80
2019-05-25T13:45:49.471Z,7.85
2019-05-25T13:48:18.872Z,7.42
2019-05-25T13:50:48.213Z,7.62
2019-05-25T13:53:17.743Z,7.87
2019-05-25T13:55:47.160Z,7.72
2019-05-25T13:58:16.587Z,7.72
2019-05-25T14:00:46.011Z,7.97
2019-05-25T14:03:15.315Z,7.85
2019-05-25T14:05:44.787Z,6.12
2019-05-25T14:08:14.272Z,6.67
2019-05-25T14:10:43.673Z,5.80
2019-05-25T14:13:13.157Z,6.15
2019-05-25T14:15:42.601Z,7.33
2019-05-25T14:18:11.946Z,6.60
2019-05-25T14:20:41.381Z,6.90
2019-05-25T14:23:10.755Z,6.58
2019-05-25T14:25:40.167Z,6.22
2019-05-25T14:28:09.569Z,5.17
2019-05-25T14:30:38.999Z,5.30
2019-05-25T14:33:08.472Z,4.92
2019-05-25T14:35:37.912Z,4.25
2019-05-25T14:38:07.350Z,2.95
2019-05-25T14:40:36.893Z,3.95
2019-05-25T14:43:06.189Z,2.47
2019-05-25T14:45:35.683Z,5.17
2019-05-25T14:48:05.053Z,3.42
2019-05-25T14:50:34.469Z,3.40
2019-05-25T14:53:03.960Z,3.75
2019-05-25T14:55:33.238Z,3.00
2019-05-25T14:58:02.827Z,2.15
2019-05-25T15:00:32.305Z,2.42
2019-05-25T15:03:01.725Z,2.60
2019-05-25T15:05:31.098Z,2.10
2019-05-25T15:08:00.528Z,2.10
2019-05-25T15:10:29.905Z,1.72
2019-05-25T15:12:59.324Z,2.55
2019-05-25T15:15:28.783Z,2.40
2019-05-25T15:17:58.247Z,2.20
2019-05-25T15:20:27.687Z,2.42
2019-05-25T15:22:57.083Z,2.20
2019-05-25T15:25:29.495Z,1.95
2019-05-25T15:27:59.885Z,2.12
2019-05-25T15:30:29.232Z,2.37
2019-05-25T15:33:17.709Z,2.17
2019-05-25T15:35:47.172Z,2.12
2019-05-25T15:38:16.585Z,1.85
2019-05-25T15:40:46.364Z,1.60
2019-05-25T15:43:15.832Z,2.00
2019-05-25T15:45:45.404Z,1.80
2019-05-25T15:48:14.924Z,2.87
2019-05-25T15:50:44.272Z,2.40
2019-05-25T15:53:13.725Z,2.55
2019-05-25T15:55:43.209Z,2.05
2019-05-25T15:58:12.576Z,2.30
2019-05-25T16:00:47.869Z,2.10
2019-05-25T16:03:18.491Z,1.80
2019-05-25T16:05:48.420Z,1.70
2019-05-25T16:08:19.373Z,1.67
2019-05-25T16:10:49.060Z,1.70
2019-05-25T16:13:18.580Z,2.20
2019-05-25T16:15:47.977Z,2.12
2019-05-25T16:18:17.335Z,2.00
2019-05-25T16:20:46.782Z,2.12
2019-05-25T16:23:16.228Z,1.62
2019-05-25T16:25:45.581Z,2.20
2019-05-25T16:28:14.991Z,2.50
2019-05-25T16:30:44.477Z,2.30
2019-05-25T16:33:14.905Z,2.37
2019-05-25T16:35:44.595Z,2.42
2019-05-25T16:38:14.198Z,1.85
2019-05-25T16:40:43.644Z,1.75
2019-05-25T16:43:12.992Z,1.90
2019-05-25T16:45:42.470Z,1.67
2019-05-25T16:48:11.879Z,2.02
2019-05-25T16:50:41.349Z,2.00
2019-05-25T16:53:10.848Z,2.40
2019-05-25T16:55:40.283Z,1.55
2019-05-25T16:58:09.645Z,2.00
2019-05-25T17:00:39.009Z,1.70
2019-05-25T17:03:08.448Z,1.62
2019-05-25T17:05:38.040Z,2.00
2019-05-25T17:08:07.488Z,1.90
2019-05-25T17:10:36.909Z,2.20
2019-05-25T17:13:06.581Z,2.22
2019-05-25T17:15:36.018Z,1.90
2019-05-25T17:18:05.428Z,1.37
2019-05-25T17:20:34.986Z,2.25
2019-05-25T17:23:04.426Z,1.92
2019-05-25T17:25:33.806Z,2.40
2019-05-25T17:28:03.355Z,2.50
2019-05-25T17:30:44.097Z,2.40
2019-05-25T17:33:13.712Z,1.90
2019-05-25T17:35:43.526Z,2.02
2019-05-25T17:38:13.010Z,1.95
2019-05-25T17:40:42.424Z,2.30
2019-05-25T17:43:12.151Z,2.40
2019-05-25T17:45:41.542Z,1.70
2019-05-25T17:48:11.052Z,2.00
2019-05-25T17:50:40.433Z,1.60
2019-05-25T17:53:10.764Z,1.55
2019-05-25T17:55:40.204Z,2.10
2019-05-25T17:58:10.680Z,2.40
2019-05-25T18:00:41.940Z,1.80
2019-05-25T18:03:11.848Z,2.92
2019-05-25T18:05:41.215Z,2.42
2019-05-25T18:08:10.974Z,2.72
2019-05-25T18:10:51.915Z,2.90
2019-05-25T18:13:11.519Z,2.92
2019-05-25T18:15:40.991Z,2.72
2019-05-25T18:18:10.330Z,3.77
2019-05-25T18:20:39.884Z,2.98
2019-05-25T18:23:09.240Z,4.23
2019-05-25T18:25:38.673Z,4.60
2019-05-25T18:28:08.267Z,4.37
2019-05-25T18:30:37.628Z,4.43
2019-05-25T18:33:07.089Z,3.85
2019-05-25T18:35:36.560Z,4.53
2019-05-25T18:38:05.933Z,4.70
2019-05-25T18:40:35.244Z,4.07
2019-05-25T18:43:04.705Z,4.00
2019-05-25T18:45:34.136Z,4.90
2019-05-25T18:48:03.648Z,4.53
2019-05-25T18:50:33.110Z,4.77
2019-05-25T18:53:02.634Z,5.37
2019-05-25T18:55:31.961Z,5.73
2019-05-25T18:58:02.713Z,6.00
2019-05-25T19:00:32.262Z,5.23
2019-05-25T19:03:01.717Z,6.23
2019-05-25T19:05:31.094Z,5.37
2019-05-25T19:08:00.484Z,5.93
2019-05-25T19:10:29.999Z,5.33
2019-05-25T19:12:59.494Z,5.13
2019-05-25T19:15:28.979Z,5.50
2019-05-25T19:17:58.541Z,5.10
2019-05-25T19:20:28.014Z,4.50
2019-05-25T19:22:57.559Z,5.37
2019-05-25T19:25:26.929Z,4.30
2019-05-25T19:27:56.280Z,4.97
2019-05-25T19:30:25.815Z,4.63
2019-05-25T19:32:55.180Z,4.73
2019-05-25T19:35:24.554Z,4.20
2019-05-25T19:37:53.903Z,4.33
2019-05-25T19:40:23.509Z,5.27
2019-05-25T19:42:52.895Z,5.63
2019-05-25T19:45:22.379Z,5.07
2019-05-25T19:47:51.855Z,6.07
2019-05-25T19:50:21.354Z,5.53
2019-05-25T19:52:50.841Z,5.63
2019-05-25T19:55:20.402Z,4.80
2019-05-25T19:57:49.832Z,4.93
2019-05-25T20:00:19.369Z,5.13
2019-05-25T20:02:48.848Z,5.20
2019-05-25T20:05:18.479Z,5.07
2019-05-25T20:07:47.945Z,4.60
2019-05-25T20:10:18.810Z,4.83
2019-05-25T20:12:48.353Z,5.03
2019-05-25T20:15:18.433Z,5.50
2019-05-25T20:17:47.788Z,6.00
2019-05-25T20:20:17.509Z,6.33
2019-05-25T20:22:47.009Z,5.90
2019-05-25T20:25:16.530Z,5.03
2019-05-25T20:27:45.873Z,4.97
2019-05-25T20:30:16.905Z,5.23
2019-05-25T20:32:46.303Z,6.07
2019-05-25T20:35:31.256Z,5.43
2019-05-25T20:37:46.777Z,4.70
2019-05-25T20:40:16.942Z,5.40
2019-05-25T20:42:46.480Z,5.20
2019-05-25T20:45:15.777Z,5.47
2019-05-25T20:47:45.056Z,6.07
2019-05-25T20:50:15.111Z,5.50
2019-05-25T20:52:44.549Z,5.03
2019-05-25T20:55:13.960Z,5.67
2019-05-25T20:57:43.388Z,4.70
2019-05-25T21:00:13.260Z,4.73
2019-05-25T21:02:43.679Z,5.50
2019-05-25T21:05:13.139Z,4.87
2019-05-25T21:07:42.509Z,4.50
2019-05-25T21:10:12.181Z,5.10
2019-05-25T21:12:41.602Z,5.17
2019-05-25T21:15:13.690Z,5.87
2019-05-25T21:17:43.020Z,5.53
2019-05-25T21:20:12.979Z,5.60
2019-05-25T21:22:42.327Z,5.67
2019-05-25T21:25:11.991Z,4.80
2019-05-25T21:27:41.510Z,4.80
2019-05-25T21:30:11.093Z,5.20
2019-05-25T21:32:40.495Z,4.40
2019-05-25T21:35:09.899Z,4.63
2019-05-25T21:37:39.284Z,4.30
2019-05-25T21:40:09.891Z,4.73
2019-05-25T21:42:39.293Z,3.83
2019-05-25T21:45:09.088Z,4.30
2019-05-25T21:47:38.487Z,4.20
2019-05-25T21:50:08.539Z,4.40
2019-05-25T21:52:38.043Z,4.60
2019-05-25T21:55:07.825Z,5.93
2019-05-25T21:57:37.200Z,4.60
2019-05-25T22:00:08.216Z,4.40
2019-05-25T22:02:37.677Z,4.80
2019-05-25T22:05:07.434Z,4.73
2019-05-25T22:07:36.973Z,5.40
2019-05-25T22:10:06.902Z,33.17
2019-05-25T22:12:36.261Z,5.43
2019-05-25T22:15:09.676Z,5.50
2019-05-25T22:17:39.973Z,7.27
2019-05-25T22:20:09.837Z,12.43
2019-05-25T22:22:39.315Z,5.63
2019-05-25T22:25:09.385Z,6.17
2019-05-25T22:27:38.871Z,6.03
2019-05-25T22:30:09.301Z,6.43
2019-05-25T22:32:38.695Z,6.57
2019-05-25T22:35:08.353Z,6.40
2019-05-25T22:37:37.781Z,6.50
2019-05-25T22:40:07.794Z,6.53
2019-05-25T22:42:37.173Z,7.70
2019-05-25T22:45:07.093Z,6.87
2019-05-25T22:47:36.576Z,7.10
2019-05-25T22:50:06.144Z,6.43
2019-05-25T22:52:35.547Z,7.67
2019-05-25T22:55:05.313Z,8.37
2019-05-25T22:57:34.767Z,13.33
2019-05-25T23:00:05.412Z,8.90
2019-05-25T23:02:35.018Z,7.30
2019-05-25T23:05:07.141Z,13.63
2019-05-25T23:07:35.657Z,12.17
2019-05-25T23:10:05.862Z,14.97
2019-05-25T23:12:35.321Z,12.80
2019-05-25T23:15:05.587Z,8.73
2019-05-25T23:17:35.074Z,7.40
2019-05-25T23:20:04.803Z,7.70
2019-05-25T23:22:34.205Z,7.53
2019-05-25T23:25:03.575Z,6.93
2019-05-25T23:27:33.089Z,6.87
2019-05-25T23:30:02.591Z,8.10
2019-05-25T23:32:32.089Z,9.23
2019-05-25T23:35:01.523Z,8.97
2019-05-25T23:37:30.994Z,8.30
2019-05-25T23:40:00.452Z,8.43
2019-05-25T23:42:29.899Z,9.00
2019-05-25T23:44:59.151Z,7.90
2019-05-25T23:47:28.528Z,8.93
2019-05-25T23:49:59.840Z,8.57
2019-05-25T23:52:29.091Z,8.70
2019-05-25T23:54:58.553Z,8.50
2019-05-25T23:57:27.938Z,8.80
2019-05-25T23:59:57.489Z,8.63
